Time;durP1;ratioP1;P1;durP2;ratioP2;P2;SDS_P1;SDS_P2;PMS_P1;PMS_P2;Temp;Humidity;BMP_temperature;BMP_pressure;BME280_temperature;BME280_humidity;BME280_pressure;Samples;Min_cycle;Max_cycle;Signal;HPM_P1;HPM_P2
2023/10/02 00:01:36;;;;;;;8.98;3.42;;;;;;;16.24;50.43;98519.09;10473248;28;20159;-71
2023/10/02 00:07:06;;;;;;;8.23;3.45;;;;;;;16.24;50.40;98521.91;10484044;28;20075;-71
2023/10/02 00:12:28;;;;;;;9.82;3.63;;;;;;;16.20;50.53;98518.09;10486244;28;20079;-71
2023/10/02 00:17:49;;;;;;;7.72;3.47;;;;;;;16.14;50.71;98518.50;10484945;28;20079;-71
2023/10/02 00:23:11;;;;;;;8.32;3.60;;;;;;;16.07;50.88;98513.88;10470447;28;20425;-70
2023/10/02 00:28:33;;;;;;;9.25;3.72;;;;;;;16.01;50.88;98516.31;10484617;28;20588;-71
2023/10/02 00:33:54;;;;;;;8.70;3.78;;;;;;;15.90;51.01;98511.44;10470666;28;20128;-71
2023/10/02 00:39:25;;;;;;;8.98;3.97;;;;;;;15.85;51.30;98509.75;10499093;28;20139;-72
2023/10/02 00:50:17;;;;;;;6.95;3.33;;;;;;;15.76;51.61;98513.44;10498355;28;20091;-72
2023/10/02 00:55:38;;;;;;;8.13;3.60;;;;;;;15.73;51.80;98516.13;10483400;28;20560;-71
2023/10/02 01:00:58;;;;;;;8.10;3.30;;;;;;;15.71;51.85;98513.19;10469169;28;20130;-70
2023/10/02 01:06:21;;;;;;;8.25;3.42;;;;;;;15.73;51.41;98515.41;10455150;28;20466;-72
2023/10/02 01:11:43;;;;;;;10.27;3.70;;;;;;;15.74;52.21;98516.88;10498527;28;20116;-71
2023/10/02 01:17:07;;;;;;;8.00;3.42;;;;;;;15.69;52.32;98513.06;10498070;28;20561;-71
2023/10/02 01:22:31;;;;;;;8.07;3.42;;;;;;;15.63;52.29;98507.09;10469254;28;20128;-71
2023/10/02 01:27:55;;;;;;;7.85;3.53;;;;;;;15.57;52.50;98506.69;10482719;28;20459;-71
2023/10/02 01:33:22;;;;;;;7.65;3.42;;;;;;;15.56;52.66;98504.50;10483601;28;20049;-71
2023/10/02 01:38:44;;;;;;;8.88;3.72;;;;;;;15.51;52.79;98506.31;10456518;28;20128;-71
2023/10/02 01:44:10;;;;;;;9.52;3.55;;;;;;;15.51;52.90;98514.75;10482501;28;20572;-71
2023/10/02 01:49:31;;;;;;;7.50;3.28;;;;;;;15.48;52.73;98510.34;10469646;28;20155;-71
2023/10/02 01:54:52;;;;;;;9.63;3.33;;;;;;;15.43;53.15;98505.81;10482834;28;20105;-71
2023/10/02 02:00:15;;;;;;;11.65;3.45;;;;;;;15.45;53.36;98508.78;10468646;28;20083;-71
2023/10/02 02:05:36;;;;;;;7.65;3.03;;;;;;;15.40;53.29;98507.03;10482687;28;20076;-72
2023/10/02 02:11:14;;;;;;;9.35;3.58;;;;;;;15.28;53.61;98511.94;10454718;28;20075;-72
2023/10/02 02:16:38;;;;;;;8.02;3.80;;;;;;;15.07;54.06;98513.50;10484562;28;20072;-71
2023/10/02 02:21:59;;;;;;;9.00;3.70;;;;;;;14.79;54.35;98520.16;10481197;28;20494;-70
2023/10/02 02:27:20;;;;;;;7.97;3.83;;;;;;;14.58;54.59;98513.25;10497751;28;20060;-71
2023/10/02 02:32:44;;;;;;;9.13;4.20;;;;;;;14.45;55.28;98516.59;10489019;28;20068;-71
2023/10/02 02:38:14;;;;;;;8.48;4.43;;;;;;;14.41;55.45;98516.31;10462547;28;20051;-72
2023/10/02 02:43:38;;;;;;;8.23;4.00;;;;;;;14.34;55.60;98520.06;10476048;28;20051;-71
2023/10/02 02:49:00;;;;;;;;;;;;;;;14.28;56.70;98519.66;10489751;28;20079;-70
2023/10/02 02:54:25;;;;;;;7.25;3.42;;;;;;;14.23;55.98;98517.94;10474337;28;19955;-72
2023/10/02 02:59:46;;;;;;;8.57;3.72;;;;;;;14.27;56.06;98518.19;10473943;28;20123;-72
2023/10/02 03:05:11;;;;;;;9.50;3.58;;;;;;;14.26;55.98;98528.69;10460409;28;20053;-70
2023/10/02 03:10:39;;;;;;;9.52;3.75;;;;;;;14.20;56.37;98525.50;10487875;28;20098;-71
2023/10/02 03:16:08;;;;;;;7.93;4.25;;;;;;;14.19;57.01;98523.31;10488515;28;20048;-71
2023/10/02 03:21:30;;;;;;;8.75;4.25;;;;;;;14.14;56.85;98516.66;10475692;28;20538;-71
2023/10/02 03:26:52;;;;;;;10.52;4.13;;;;;;;14.15;57.04;98525.81;10479527;28;20037;-72
2023/10/02 03:32:14;;;;;;;11.48;4.50;;;;;;;14.15;57.28;98511.78;10487816;28;20418;-72
2023/10/02 03:37:35;;;;;;;8.48;3.83;;;;;;;14.13;57.42;98523.63;10501275;28;20040;-72
2023/10/02 03:42:56;;;;;;;7.72;3.72;;;;;;;14.08;57.06;98513.44;10501486;28;20094;-72
2023/10/02 03:48:17;;;;;;;9.25;4.13;;;;;;;14.04;57.69;98502.69;10486254;28;20380;-72
2023/10/02 03:53:38;;;;;;;9.52;3.60;;;;;;;14.01;57.51;98497.56;10486039;28;20120;-71
2023/10/02 03:58:58;;;;;;;7.57;3.80;;;;;;;13.98;57.60;98505.09;10486622;28;20060;-70
2023/10/02 04:04:21;;;;;;;10.25;4.40;;;;;;;13.93;58.09;98489.34;10485664;28;20078;-72
2023/10/02 04:09:49;;;;;;;9.63;4.32;;;;;;;13.92;58.27;98487.13;10485732;28;20071;-72
2023/10/02 04:15:11;;;;;;;10.32;4.68;;;;;;;13.91;58.89;98494.09;10486361;28;20052;-71
2023/10/02 04:20:35;;;;;;;10.27;4.50;;;;;;;13.90;58.68;98498.97;10500131;28;20431;-71
2023/10/02 04:25:56;;;;;;;;;;;;;;;13.86;60.06;98498.69;10476052;28;20044;-72
2023/10/02 04:31:23;;;;;;;12.27;4.93;;;;;;;13.81;59.37;98502.56;10488294;28;19974;-73
2023/10/02 04:36:44;;;;;;;9.02;3.95;;;;;;;13.76;59.99;98500.81;10495748;28;20063;-74
2023/10/02 04:47:58;;;;;;;10.93;4.28;;;;;;;13.75;60.68;98507.75;10495317;28;20060;-71
2023/10/02 04:53:22;;;;;;;11.10;4.95;;;;;;;13.77;60.57;98507.91;10497901;28;20040;-71
2023/10/02 04:58:49;;;;;;;14.52;4.85;;;;;;;13.82;60.72;98518.06;10484108;28;20157;-71
2023/10/02 05:04:18;;;;;;;10.57;4.70;;;;;;;13.83;61.25;98513.94;10484248;28;20080;-71
2023/10/02 05:09:39;;;;;;;11.23;4.75;;;;;;;13.94;61.77;98521.69;10484643;28;20044;-71
2023/10/02 05:15:07;;;;;;;15.88;5.70;;;;;;;14.18;61.35;98524.63;10483502;28;20072;-71
2023/10/02 05:20:28;;;;;;;9.10;5.13;;;;;;;14.69;61.85;98534.31;10457050;28;20117;-71
2023/10/02 05:25:50;;;;;;;14.55;5.13;;;;;;;15.15;61.58;98532.94;10468880;28;20037;-70
2023/10/02 05:31:12;;;;;;;10.38;5.15;;;;;;;15.98;62.26;98531.63;10497476;28;20060;-71
2023/10/02 05:36:35;;;;;;;13.85;5.70;;;;;;;18.53;61.28;98529.13;10497186;28;20037;-70
2023/10/02 05:42:05;;;;;;;14.93;5.53;;;;;;;24.19;52.53;98539.09;10468207;28;20090;-72
2023/10/02 05:47:27;;;;;;;11.95;5.97;;;;;;;27.94;46.70;98547.00;10456419;28;20131;-72
2023/10/02 05:52:48;;;;;;;11.63;5.40;;;;;;;31.17;40.75;98544.28;10481494;28;20045;-73
2023/10/02 05:58:20;;;;;;;;;;;;;;;33.85;33.89;98559.03;10482854;28;20072;-72
2023/10/02 06:03:41;;;;;;;9.88;5.90;;;;;;;35.67;31.31;98562.66;10488464;28;19963;-73
2023/10/02 06:09:03;;;;;;;11.55;6.03;;;;;;;37.17;26.24;98573.75;10504514;28;20394;-73
2023/10/02 06:14:24;;;;;;;11.25;6.20;;;;;;;38.62;23.00;98573.19;10475940;28;20040;-73
2023/10/02 06:19:45;;;;;;;11.13;5.78;;;;;;;40.31;19.99;98570.13;10489216;28;20443;-74
2023/10/02 06:25:17;;;;;;;12.68;6.28;;;;;;;42.22;18.58;98569.97;10503862;28;20068;-76
2023/10/02 06:30:38;;;;;;;9.05;5.70;;;;;;;44.02;16.07;98572.59;10490450;28;20041;-75
2023/10/02 06:36:00;;;;;;;10.52;6.40;;;;;;;45.78;14.53;98566.72;10503593;28;20168;-75
2023/10/02 06:41:23;;;;;;;11.75;6.40;;;;;;;46.67;12.78;98560.97;10475380;28;20215;-76
2023/10/02 06:46:54;;;;;;;10.52;5.78;;;;;;;47.40;11.81;98561.22;10503374;28;20498;-75
2023/10/02 06:52:18;;;;;;;9.20;5.85;;;;;;;48.87;10.63;98560.19;10503640;28;20471;-76
2023/10/02 06:57:49;;;;;;;12.70;5.85;;;;;;;49.49;9.50;98565.06;10503113;28;20120;-76
2023/10/02 07:03:10;;;;;;;11.00;6.07;;;;;;;49.84;9.82;98566.00;10502855;28;20076;-76
2023/10/02 07:08:33;;;;;;;10.57;6.22;;;;;;;49.25;9.63;98567.66;10502300;28;20124;-76
2023/10/02 07:13:56;;;;;;;7.70;5.55;;;;;;;50.10;8.71;98572.81;10501568;28;20132;-75
2023/10/02 07:19:38;;;;;;;13.23;5.78;;;;;;;50.62;8.26;98567.03;10487727;28;20045;-77
2023/10/02 07:24:59;;;;;;;8.80;5.38;;;;;;;50.72;7.98;98568.47;10501945;28;20486;-75
2023/10/02 07:30:26;;;;;;;10.20;6.10;;;;;;;51.83;7.69;98571.63;10501936;28;20482;-76
2023/10/02 07:35:54;;;;;;;9.90;5.45;;;;;;;52.91;6.99;98571.50;10501516;28;20170;-76
2023/10/02 07:41:25;;;;;;;9.05;5.65;;;;;;;51.45;7.25;98567.50;10486339;28;20474;-76
2023/10/02 07:46:55;;;;;;;10.32;5.47;;;;;;;50.99;7.42;98563.28;10486745;28;20037;-78
2023/10/02 07:52:35;;;;;;;9.30;5.63;;;;;;;51.88;7.42;98560.75;10487136;28;20111;-78
2023/10/02 07:58:00;;;;;;;7.25;5.10;;;;;;;51.82;7.34;98552.38;10477539;28;20049;-79
2023/10/02 08:03:42;;;;;;;8.27;5.40;;;;;;;53.14;6.66;98549.22;10447221;28;20061;-78
2023/10/02 08:14:46;;;;;;;11.15;5.40;;;;;;;52.46;6.48;98551.09;10433793;28;20037;-79
2023/10/02 08:20:19;;;;;;;8.00;5.07;;;;;;;53.15;6.49;98545.34;10457652;28;20048;-80
2023/10/02 08:25:40;;;;;;;9.63;5.55;;;;;;;53.22;6.24;98545.47;10431329;28;20525;-77
2023/10/02 08:31:02;;;;;;;10.93;5.97;;;;;;;52.85;6.93;98539.25;10441451;28;20055;-75
2023/10/02 08:36:22;;;;;;;9.98;6.13;;;;;;;53.61;6.23;98550.72;10414608;28;20120;-77
2023/10/02 08:41:46;;;;;;;9.80;6.25;;;;;;;54.60;5.40;98546.16;10414117;28;20119;-78
2023/10/02 08:47:09;;;;;;;7.07;5.73;;;;;;;55.52;5.81;98540.44;10426984;28;20041;-78
2023/10/02 08:52:46;;;;;;;9.25;5.85;;;;;;;55.43;5.01;98530.94;10413468;28;20071;-76
2023/10/02 08:58:17;;;;;;;8.63;5.75;;;;;;;54.65;5.77;98528.53;10428802;28;20049;-79
2023/10/02 09:03:42;;;;;;;9.30;5.82;;;;;;;56.28;5.39;98511.47;10449270;28;20063;-77
2023/10/02 09:09:17;;;;;;;7.63;6.10;;;;;;;56.36;4.86;98523.22;10482485;28;20049;-77
2023/10/02 09:14:39;;;;;;;8.20;5.75;;;;;;;56.10;5.57;98511.13;10484779;28;20414;-78
2023/10/02 09:20:03;;;;;;;7.20;5.85;;;;;;;56.71;5.17;98507.44;10482941;28;20059;-78
2023/10/02 09:25:35;;;;;;;8.90;5.80;;;;;;;55.64;4.38;98503.25;10469001;28;20120;-78
2023/10/02 09:31:14;;;;;;;9.73;5.93;;;;;;;53.96;5.67;98500.28;10483833;28;20100;-78
2023/10/02 09:36:36;;;;;;;8.77;5.93;;;;;;;54.61;5.25;98496.06;10476964;28;20529;-77
2023/10/02 09:42:18;;;;;;;7.72;5.55;;;;;;;55.49;5.34;98482.41;10499077;28;20120;-78
2023/10/02 09:47:39;;;;;;;8.77;5.60;;;;;;;56.71;5.09;98477.47;10482522;28;20120;-78
2023/10/02 09:53:20;;;;;;;6.82;5.53;;;;;;;58.41;3.92;98481.19;10498980;28;20044;-78
2023/10/02 09:58:52;;;;;;;7.15;5.47;;;;;;;58.51;4.01;98476.28;10482176;28;20048;-78
2023/10/02 10:04:32;;;;;;;8.82;5.85;;;;;;;58.06;3.50;98480.84;10496215;28;20064;-77
2023/10/02 10:10:27;;;;;;;6.40;5.13;;;;;;;57.06;3.85;98480.28;10510697;28;20072;-77
2023/10/02 10:15:49;;;;;;;7.50;5.38;;;;;;;56.33;4.21;98470.44;10496052;28;20068;-78
2023/10/02 10:21:55;;;;;;;7.18;5.18;;;;;;;56.33;4.73;98458.47;10481825;28;20045;-77
2023/10/02 10:27:39;;;;;;;7.15;5.30;;;;;;;56.67;4.07;98451.66;10483978;28;20095;-78
2023/10/02 10:38:41;;;;;;;8.75;5.20;;;;;;;54.41;5.31;98454.72;10509861;28;20040;-78
2023/10/02 10:44:08;;;;;;;7.72;5.53;;;;;;;54.23;5.53;98447.59;10482482;28;20040;-77
2023/10/02 10:49:52;;;;;;;6.63;5.53;;;;;;;54.23;4.99;98430.34;10505915;28;20053;-79
2023/10/02 10:55:32;;;;;;;10.52;5.57;;;;;;;50.12;6.80;98432.44;10476970;28;20051;-77
2023/10/02 11:00:53;;;;;;;9.77;6.35;;;;;;;43.00;10.08;98425.97;10489292;28;20041;-77
2023/10/02 11:06:15;;;;;;;11.20;7.13;;;;;;;38.28;13.42;98420.50;10474226;28;20049;-78
2023/10/02 11:11:53;;;;;;;12.85;7.45;;;;;;;35.27;15.82;98417.59;10474156;28;20064;-77
2023/10/02 11:17:14;;;;;;;13.85;7.43;;;;;;;33.94;17.57;98404.03;10489170;28;20119;-76
2023/10/02 11:22:48;;;;;;;15.75;8.48;;;;;;;32.69;19.06;98416.41;10473285;28;20390;-76
2023/10/02 11:28:09;;;;;;;13.25;7.43;;;;;;;31.93;20.36;98414.88;10472570;28;20144;-74
2023/10/02 11:33:36;;;;;;;15.27;7.85;;;;;;;39.02;17.07;98406.31;10486608;28;20064;-77
2023/10/02 11:38:57;;;;;;;12.80;7.88;;;;;;;42.88;11.82;98399.47;10501255;28;20120;-76
2023/10/02 11:44:18;;;;;;;14.40;8.05;;;;;;;41.27;12.05;98395.63;10472887;28;20040;-74
2023/10/02 11:49:39;;;;;;;14.23;8.38;;;;;;;38.47;14.21;98394.38;10486204;28;20048;-75
2023/10/02 11:55:00;;;;;;;13.48;8.05;;;;;;;37.14;15.46;98394.16;10472243;28;20134;-73
2023/10/02 12:00:23;;;;;;;17.17;8.77;;;;;;;35.23;17.18;98379.25;10472079;28;20182;-75
2023/10/02 12:05:44;;;;;;;14.90;8.07;;;;;;;34.09;18.48;98379.19;10485263;28;20090;-75
2023/10/02 12:11:08;;;;;;;;;;;;;;;34.06;18.42;98371.25;10472227;28;20041;-75
2023/10/02 12:16:29;;;;;;;11.63;7.40;;;;;;;33.58;18.96;98365.47;10500106;28;20374;-75
2023/10/02 12:21:49;;;;;;;;;;;;;;;33.59;19.28;98372.00;10485006;28;20049;-76
2023/10/02 12:27:28;;;;;;;16.60;8.50;;;;;;;33.12;18.89;98363.94;10486769;28;19950;-75
2023/10/02 12:32:49;;;;;;;16.55;8.43;;;;;;;32.37;20.47;98358.97;10499382;28;20398;-76
2023/10/02 12:38:13;;;;;;;13.05;7.68;;;;;;;31.63;21.36;98350.84;10483955;28;20048;-75
2023/10/02 12:43:35;;;;;;;17.15;8.15;;;;;;;30.90;22.11;98331.06;10484069;28;20111;-75
2023/10/02 12:48:57;;;;;;;15.40;8.05;;;;;;;30.65;22.30;98339.06;10483605;28;20040;-74
2023/10/02 12:54:19;;;;;;;16.38;7.78;;;;;;;30.85;22.31;98326.03;10484046;28;20468;-75
2023/10/02 12:59:40;;;;;;;15.43;8.02;;;;;;;31.04;21.77;98325.22;10482821;28;20037;-74
2023/10/02 13:05:04;;;;;;;15.00;7.20;;;;;;;30.83;21.50;98315.25;10468876;28;20044;-73
2023/10/02 13:10:25;;;;;;;12.82;7.65;;;;;;;30.75;21.66;98306.63;10482599;28;20040;-74
2023/10/02 13:15:50;;;;;;;15.05;6.85;;;;;;;30.90;21.28;98304.41;10469704;28;20451;-75
2023/10/02 13:21:20;;;;;;;15.40;7.10;;;;;;;30.87;21.65;98303.69;10483469;28;20040;-74
2023/10/02 13:26:41;;;;;;;17.20;7.72;;;;;;;30.43;21.74;98302.41;10483262;28;20063;-74
2023/10/02 13:32:05;;;;;;;;;;;;;;;30.27;22.04;98296.66;10455278;28;20052;-74
2023/10/02 13:37:25;;;;;;;13.07;7.22;;;;;;;30.02;22.32;98289.50;10497191;28;19973;-74
2023/10/02 13:42:49;;;;;;;13.95;7.82;;;;;;;29.98;22.53;98278.00;10454069;28;20060;-75
2023/10/02 13:48:10;;;;;;;15.95;8.30;;;;;;;29.99;22.25;98270.78;10482437;28;20048;-75
2023/10/02 13:53:32;;;;;;;13.27;7.63;;;;;;;29.45;22.50;98260.72;10496790;28;20044;-75
2023/10/02 13:58:54;;;;;;;14.27;7.70;;;;;;;29.69;22.76;98260.75;10481921;28;20037;-75
2023/10/02 14:04:19;;;;;;;16.30;7.83;;;;;;;29.26;22.99;98252.09;10467819;28;20056;-74
2023/10/02 14:09:40;;;;;;;15.15;7.80;;;;;;;28.87;22.99;98254.13;10482099;28;20068;-74
2023/10/02 14:15:03;;;;;;;14.02;7.82;;;;;;;28.74;22.99;98253.38;10496919;28;20041;-73
2023/10/02 14:20:25;;;;;;;18.13;8.90;;;;;;;28.50;23.14;98253.28;10481995;28;20493;-74
2023/10/02 14:25:46;;;;;;;16.58;8.07;;;;;;;28.32;23.31;98244.59;10486592;28;20067;-74
2023/10/02 14:31:07;;;;;;;16.27;8.15;;;;;;;28.42;23.49;98239.59;10503914;28;20070;-74
2023/10/02 14:36:29;;;;;;;12.20;6.53;;;;;;;28.43;23.61;98246.78;10474773;28;20047;-72
2023/10/02 14:41:51;;;;;;;16.67;7.85;;;;;;;28.03;23.15;98235.06;10474451;28;20103;-75
2023/10/02 14:47:14;;;;;;;12.40;6.57;;;;;;;27.72;23.16;98239.91;10474274;28;20060;-75
2023/10/02 14:52:35;;;;;;;13.15;6.95;;;;;;;27.56;23.44;98232.56;10474576;28;20406;-74
2023/10/02 14:57:57;;;;;;;12.20;6.70;;;;;;;27.58;23.56;98226.13;10474325;28;20052;-74
2023/10/02 15:03:18;;;;;;;13.63;6.60;;;;;;;27.55;23.45;98216.78;10473993;28;20052;-75
2023/10/02 15:08:40;;;;;;;13.88;6.28;;;;;;;27.42;23.61;98226.75;10502599;28;20040;-73
2023/10/02 15:14:02;;;;;;;12.55;6.15;;;;;;;27.36;23.47;98221.66;10474408;28;20047;-73
2023/10/02 15:19:23;;;;;;;13.90;6.50;;;;;;;27.36;23.60;98224.53;10487443;28;20390;-74
2023/10/02 15:24:44;;;;;;;12.23;6.25;;;;;;;27.26;23.68;98227.31;10486782;28;20040;-74
2023/10/02 15:30:06;;;;;;;12.65;6.05;;;;;;;26.99;23.73;98222.72;10486603;28;20040;-74
2023/10/02 15:35:27;;;;;;;13.75;6.40;;;;;;;26.74;24.02;98222.47;10472059;28;20086;-72
2023/10/02 15:40:48;;;;;;;13.23;6.90;;;;;;;26.49;24.66;98224.31;10486431;28;20044;-73
2023/10/02 15:46:12;;;;;;;12.30;6.15;;;;;;;26.22;24.98;98234.69;10486077;28;20102;-74
2023/10/02 15:51:33;;;;;;;11.90;5.93;;;;;;;25.92;25.16;98226.41;10472850;28;20127;-73
2023/10/02 15:56:55;;;;;;;17.27;6.55;;;;;;;25.59;25.69;98224.47;10471576;28;20105;-74
2023/10/02 16:02:16;;;;;;;16.33;6.72;;;;;;;25.31;26.46;98222.59;10485144;28;20076;-74
2023/10/02 16:07:38;;;;;;;14.93;6.40;;;;;;;25.05;26.78;98222.13;10500207;28;20064;-73
2023/10/02 16:12:59;;;;;;;12.57;6.27;;;;;;;24.87;27.03;98227.47;10470915;28;20398;-72
2023/10/02 16:18:20;;;;;;;16.08;6.35;;;;;;;24.65;27.90;98222.78;10471326;28;20047;-73
2023/10/02 16:23:42;;;;;;;16.60;6.43;;;;;;;24.38;28.46;98223.66;10470578;28;20040;-73
2023/10/02 16:29:03;;;;;;;18.48;6.28;;;;;;;24.04;28.86;98227.22;10499858;28;20068;-72
2023/10/02 16:34:24;;;;;;;11.93;5.88;;;;;;;23.69;29.43;98229.28;10498892;28;20119;-73
2023/10/02 16:39:45;;;;;;;14.38;6.25;;;;;;;23.41;29.98;98228.56;10456609;28;20167;-73
2023/10/02 16:45:07;;;;;;;24.77;7.50;;;;;;;23.12;30.55;98225.00;10498233;28;20066;-73
2023/10/02 16:50:28;;;;;;;18.20;8.40;;;;;;;22.91;31.18;98222.31;10469447;28;20478;-72
2023/10/02 16:55:54;;;;;;;26.23;12.33;;;;;;;22.70;31.46;98229.56;10498668;28;20174;-72
2023/10/02 17:01:18;;;;;;;13.73;7.57;;;;;;;22.45;31.74;98225.28;10469523;28;20394;-72
2023/10/02 17:06:39;;;;;;;15.52;5.78;;;;;;;22.18;32.24;98235.91;10469593;28;20116;-73
2023/10/02 17:12:00;;;;;;;14.55;6.47;;;;;;;21.88;32.85;98241.38;10483126;28;20509;-73
2023/10/02 17:17:20;;;;;;;12.73;6.20;;;;;;;21.73;33.38;98233.06;10469709;28;20064;-73
2023/10/02 17:22:43;;;;;;;10.80;5.10;;;;;;;21.71;33.46;98242.25;10469387;28;20051;-73
2023/10/02 17:28:04;;;;;;;11.98;5.68;;;;;;;21.68;33.87;98237.88;10468576;28;20120;-72
2023/10/02 17:33:25;;;;;;;16.45;5.90;;;;;;;21.66;33.90;98246.34;10482465;28;20144;-73
2023/10/02 17:38:45;;;;;;;11.50;5.38;;;;;;;21.58;34.04;98234.72;10497253;28;20044;-73
2023/10/02 17:44:06;;;;;;;15.63;5.65;;;;;;;21.46;34.73;98234.34;10482503;28;20044;-72
2023/10/02 17:49:27;;;;;;;12.73;5.03;;;;;;;21.38;34.81;98232.69;10481838;28;20485;-73
2023/10/02 17:54:48;;;;;;;19.13;5.75;;;;;;;21.37;34.84;98233.34;10454671;28;20128;-73
2023/10/02 18:00:13;;;;;;;13.07;4.95;;;;;;;21.37;34.87;98239.03;10488512;28;20124;-73
2023/10/02 18:05:34;;;;;;;13.13;5.13;;;;;;;21.31;35.12;98228.19;10477670;28;20414;-72
2023/10/02 18:10:56;;;;;;;16.00;5.22;;;;;;;21.27;35.42;98227.34;10490348;28;20071;-73
2023/10/02 18:16:17;;;;;;;15.88;5.50;;;;;;;21.21;35.31;98241.28;10475805;28;20075;-73
2023/10/02 18:21:40;;;;;;;10.80;4.72;;;;;;;21.15;35.22;98225.53;10476303;28;20214;-72
2023/10/02 18:27:01;;;;;;;16.92;5.43;;;;;;;21.12;35.81;98226.09;10489596;28;20064;-73
2023/10/02 18:32:22;;;;;;;16.95;5.05;;;;;;;21.09;35.83;98228.16;10504105;28;20091;-73
2023/10/02 18:37:43;;;;;;;13.30;4.60;;;;;;;21.05;35.91;98218.78;10475954;28;20571;-73
2023/10/02 18:43:04;;;;;;;10.75;4.50;;;;;;;20.99;36.35;98218.56;10475382;28;20076;-73
2023/10/02 18:48:24;;;;;;;16.02;5.38;;;;;;;20.91;36.25;98221.84;10503639;28;20044;-73
2023/10/02 18:53:46;;;;;;;15.80;5.22;;;;;;;20.80;36.42;98220.78;10488844;28;20144;-72
2023/10/02 18:59:07;;;;;;;13.38;4.82;;;;;;;20.77;36.39;98215.69;10474521;28;20086;-72
2023/10/02 19:04:28;;;;;;;11.88;4.82;;;;;;;20.76;36.67;98208.56;10503109;28;20128;-73
2023/10/02 19:09:48;;;;;;;12.93;5.07;;;;;;;20.74;36.53;98209.22;10473088;28;20065;-73
2023/10/02 19:15:11;;;;;;;13.38;4.82;;;;;;;20.72;36.57;98209.16;10487814;28;20540;-73
2023/10/02 19:20:32;;;;;;;13.98;5.20;;;;;;;20.66;36.68;98211.78;10488059;28;20068;-73
2023/10/02 19:25:53;;;;;;;12.55;5.57;;;;;;;20.61;36.75;98201.66;10487516;28;20041;-72
2023/10/02 19:31:13;;;;;;;16.95;6.90;;;;;;;20.55;36.87;98207.84;10487107;28;20040;-73
2023/10/02 19:36:34;;;;;;;14.73;5.45;;;;;;;20.49;36.81;98198.41;10486847;28;20064;-72
2023/10/02 19:41:55;;;;;;;15.23;5.20;;;;;;;20.45;37.27;98195.41;10486274;28;20083;-72
2023/10/02 19:47:16;;;;;;;16.90;5.75;;;;;;;20.37;37.31;98193.00;10486277;28;20067;-73
2023/10/02 19:52:37;;;;;;;13.45;5.30;;;;;;;20.29;37.16;98192.72;10472768;28;20074;-72
2023/10/02 19:57:58;;;;;;;10.98;5.13;;;;;;;20.23;37.51;98196.03;10485672;28;20064;-71
2023/10/02 20:03:19;;;;;;;12.55;5.40;;;;;;;20.09;37.65;98189.84;10485708;28;20517;-73
2023/10/02 20:08:41;;;;;;;13.38;5.13;;;;;;;19.94;38.70;98185.75;10471254;28;20064;-73
2023/10/02 20:14:04;;;;;;;16.48;6.15;;;;;;;19.81;38.41;98177.44;10500048;28;20040;-72
2023/10/02 20:19:25;;;;;;;13.35;5.43;;;;;;;19.76;38.58;98173.00;10471786;28;20076;-73
2023/10/02 20:24:49;;;;;;;13.18;5.35;;;;;;;19.76;38.68;98173.00;10484729;28;20391;-72
2023/10/02 20:30:10;;;;;;;;;;;;;;;19.71;39.45;98172.84;10471032;28;20048;-72
2023/10/02 20:35:44;;;;;;;11.60;4.75;;;;;;;19.66;39.26;98162.00;10470414;28;19959;-73
2023/10/02 20:41:05;;;;;;;12.32;5.55;;;;;;;19.61;39.15;98163.97;10484948;28;20120;-73
2023/10/02 20:46:26;;;;;;;13.98;5.75;;;;;;;19.50;39.66;98164.94;10499426;28;20632;-72
2023/10/02 20:51:47;;;;;;;12.23;5.38;;;;;;;19.43;39.45;98177.38;10469725;28;20135;-73
2023/10/02 20:57:08;;;;;;;12.80;4.80;;;;;;;19.37;39.70;98162.97;10469436;28;20068;-72
2023/10/02 21:02:29;;;;;;;16.48;5.93;;;;;;;19.39;39.77;98157.38;10484335;28;20076;-72
2023/10/02 21:07:51;;;;;;;13.13;5.63;;;;;;;19.39;39.77;98148.91;10470132;28;20107;-73
2023/10/02 21:13:11;;;;;;;13.45;5.55;;;;;;;19.36;39.99;98155.88;10498055;28;20076;-73
2023/10/02 21:18:32;;;;;;;14.00;5.20;;;;;;;19.27;40.12;98148.44;10483260;28;20459;-71
2023/10/02 21:23:53;;;;;;;17.27;6.60;;;;;;;19.19;40.11;98139.59;10482810;28;20124;-73
2023/10/02 21:29:13;;;;;;;13.77;6.38;;;;;;;19.11;39.96;98135.09;10482950;28;20040;-73
2023/10/02 21:34:34;;;;;;;12.02;5.35;;;;;;;19.01;40.33;98134.69;10467942;28;20120;-72
2023/10/02 21:39:55;;;;;;;11.50;4.88;;;;;;;19.01;40.32;98125.44;10482620;28;20124;-72
2023/10/02 21:45:16;;;;;;;11.43;5.15;;;;;;;19.01;40.41;98128.28;10468753;28;20108;-72
2023/10/02 21:50:37;;;;;;;11.20;5.50;;;;;;;18.98;40.48;98129.59;10482271;28;20158;-73
2023/10/02 21:56:01;;;;;;;13.20;6.07;;;;;;;18.95;40.49;98131.59;10454501;28;20102;-72
2023/10/02 22:01:22;;;;;;;11.63;4.95;;;;;;;18.89;40.42;98128.53;10482093;28;20079;-74
2023/10/02 22:06:45;;;;;;;9.98;4.93;;;;;;;18.78;40.71;98135.13;10481938;28;20462;-73
2023/10/02 22:12:06;;;;;;;;;;;;;;;18.66;41.51;98129.72;10482518;28;20099;-74
2023/10/02 22:17:27;;;;;;;12.00;4.90;;;;;;;18.60;41.02;98127.31;10481809;28;20015;-72
2023/10/02 22:22:49;;;;;;;12.80;5.68;;;;;;;18.46;41.31;98126.72;10481811;28;20091;-73
2023/10/02 22:28:10;;;;;;;10.57;5.22;;;;;;;18.34;41.37;98114.19;10481590;28;20075;-72
2023/10/02 22:33:32;;;;;;;14.23;5.35;;;;;;;18.27;41.89;98107.53;10453878;28;20112;-72
2023/10/02 22:38:54;;;;;;;14.38;5.97;;;;;;;18.20;42.08;98098.06;10496085;28;20067;-73
2023/10/02 22:44:15;;;;;;;17.50;6.10;;;;;;;18.10;41.90;98106.09;10482500;28;20098;-71
2023/10/02 22:49:36;;;;;;;12.98;5.70;;;;;;;18.02;42.30;98100.81;10503341;28;20182;-72
2023/10/02 22:55:00;;;;;;;12.63;5.55;;;;;;;17.99;42.47;98095.72;10488182;28;20124;-73
2023/10/02 23:00:23;;;;;;;12.45;5.57;;;;;;;17.95;42.86;98090.63;10488333;28;20144;-73
2023/10/02 23:05:44;;;;;;;12.27;5.10;;;;;;;17.90;42.98;98076.97;10475143;28;20084;-74
2023/10/02 23:11:06;;;;;;;11.95;5.35;;;;;;;17.86;42.99;98090.91;10502824;28;20112;-73
2023/10/02 23:16:27;;;;;;;11.65;4.70;;;;;;;17.85;43.15;98080.97;10502506;28;20076;-73
2023/10/02 23:21:48;;;;;;;10.65;4.90;;;;;;;17.78;43.26;98082.81;10473426;28;20174;-73
2023/10/02 23:27:09;;;;;;;11.23;4.97;;;;;;;17.75;43.53;98078.41;10487270;28;20505;-72
2023/10/02 23:32:30;;;;;;;12.77;5.25;;;;;;;17.71;43.76;98084.63;10473011;28;20116;-72
2023/10/02 23:37:52;;;;;;;14.13;5.40;;;;;;;17.67;43.81;98081.59;10473059;28;20494;-73
2023/10/02 23:43:14;;;;;;;13.75;4.72;;;;;;;17.65;44.09;98075.84;10472579;28;20117;-73
2023/10/02 23:48:38;;;;;;;11.70;4.88;;;;;;;17.62;44.20;98084.88;10472710;28;20116;-73
2023/10/02 23:53:58;;;;;;;12.73;5.60;;;;;;;17.59;44.38;98086.88;10500859;28;20071;-73
2023/10/02 23:59:20;;;;;;;12.52;5.45;;;;;;;17.47;44.62;98080.69;10500560;28;20120;-74
